EZY57LR EGAA-EGNT
Flight info
| Callsign | EZY57LR |
|---|---|
| Flight time | N/A |
| Altitude | 23000 |
| Route | BLACA |
| Aircraft | A320/M-SDE3FGHIRWY/LB1 |
Departure
| Time | 2026-05-05 00:15 |
|---|---|
| Airport | Belfast International Airport (EGAA) |
Arrival
| Time | N/A |
|---|---|
| Airport | Newcastle International Airport (EGNT) |
| Time | Latitude | Longitude | Altitude | Speed | Heading |
|---|---|---|---|---|---|
| 2026-05-04 23:59 | 54.66109 | -6.21354 | 272 ft | 0 kts | 245° |
| 2026-05-05 00:06 | 54.66110 | -6.21349 | 272 ft | 3 kts | 244° |
| 2026-05-05 00:06 | 54.66124 | -6.21309 | 275 ft | 4 kts | 227° |
| 2026-05-05 00:06 | 54.66144 | -6.21284 | 272 ft | 4 kts | 185° |
| 2026-05-05 00:06 | 54.66156 | -6.21286 | 276 ft | 0 kts | 155° |
| 2026-05-05 00:10 | 54.66154 | -6.21284 | 275 ft | 2 kts | 155° |
| 2026-05-05 00:10 | 54.66092 | -6.21234 | 275 ft | 11 kts | 155° |
| 2026-05-05 00:10 | 54.66049 | -6.21158 | 272 ft | 9 kts | 84° |
| 2026-05-05 00:11 | 54.66072 | -6.21063 | 272 ft | 9 kts | 65° |
| 2026-05-05 00:11 | 54.66096 | -6.20976 | 272 ft | 8 kts | 65° |
| 2026-05-05 00:11 | 54.66117 | -6.20899 | 274 ft | 7 kts | 65° |
| 2026-05-05 00:11 | 54.66136 | -6.20831 | 272 ft | 6 kts | 65° |
| 2026-05-05 00:12 | 54.66158 | -6.20749 | 276 ft | 9 kts | 65° |
| 2026-05-05 00:12 | 54.66182 | -6.20659 | 272 ft | 8 kts | 65° |
| 2026-05-05 00:12 | 54.66204 | -6.20580 | 272 ft | 7 kts | 65° |
| 2026-05-05 00:12 | 54.66222 | -6.20510 | 272 ft | 6 kts | 67° |
| 2026-05-05 00:13 | 54.66237 | -6.20448 | 272 ft | 6 kts | 67° |
| 2026-05-05 00:13 | 54.66281 | -6.20285 | 272 ft | 23 kts | 65° |
| 2026-05-05 00:13 | 54.66353 | -6.20022 | 272 ft | 25 kts | 66° |
| 2026-05-05 00:13 | 54.66393 | -6.19784 | 272 ft | 15 kts | 108° |
| 2026-05-05 00:14 | 54.66339 | -6.19693 | 272 ft | 10 kts | 158° |
| 2026-05-05 00:14 | 54.66281 | -6.19647 | 276 ft | 9 kts | 157° |
| 2026-05-05 00:14 | 54.66262 | -6.19681 | 272 ft | 3 kts | 243° |
| 2026-05-05 00:14 | 54.66233 | -6.19781 | 274 ft | 33 kts | 244° |
| 2026-05-05 00:15 | 54.66021 | -6.20575 | 274 ft | 108 kts | 245° |
| 2026-05-05 00:15 | 54.65634 | -6.22055 | 360 ft | 153 kts | 246° |
| 2026-05-05 00:15 | 54.65219 | -6.23754 | 1037 ft | 156 kts | 248° |
| 2026-05-05 00:15 | 54.64762 | -6.25491 | 1756 ft | 165 kts | 247° |
| 2026-05-05 00:16 | 54.64060 | -6.27257 | 2100 ft | 201 kts | 218° |
| 2026-05-05 00:16 | 54.62643 | -6.27923 | 2668 ft | 229 kts | 175° |
| 2026-05-05 00:16 | 54.61121 | -6.26848 | 3336 ft | 250 kts | 138° |
| 2026-05-05 00:16 | 54.60144 | -6.24301 | 4015 ft | 266 kts | 105° |
| 2026-05-05 00:17 | 54.60054 | -6.21092 | 4792 ft | 276 kts | 72° |
| 2026-05-05 00:17 | 54.60930 | -6.18131 | 5617 ft | 282 kts | 51° |
| 2026-05-05 00:17 | 54.62075 | -6.15361 | 6693 ft | 280 kts | 50° |
| 2026-05-05 00:17 | 54.63225 | -6.12623 | 7715 ft | 283 kts | 51° |
| 2026-05-05 00:18 | 54.64388 | -6.09855 | 8688 ft | 286 kts | 51° |
| 2026-05-05 00:18 | 54.65515 | -6.06970 | 9646 ft | 292 kts | 57° |
| 2026-05-05 00:18 | 54.66457 | -6.03800 | 10444 ft | 304 kts | 63° |
| 2026-05-05 00:18 | 54.67333 | -6.00367 | 10798 ft | 328 kts | 65° |
| 2026-05-05 00:19 | 54.68240 | -5.96573 | 11146 ft | 351 kts | 66° |
| 2026-05-05 00:19 | 54.69180 | -5.92593 | 11805 ft | 361 kts | 66° |
| 2026-05-05 00:19 | 54.70148 | -5.88561 | 12599 ft | 366 kts | 65° |
| 2026-05-05 00:19 | 54.71137 | -5.84529 | 13389 ft | 370 kts | 65° |
| 2026-05-05 00:20 | 54.72168 | -5.80407 | 14163 ft | 375 kts | 65° |
| 2026-05-05 00:20 | 54.73224 | -5.76237 | 14873 ft | 380 kts | 65° |
| 2026-05-05 00:20 | 54.74297 | -5.72024 | 15581 ft | 384 kts | 65° |
| 2026-05-05 00:20 | 54.75385 | -5.67762 | 16262 ft | 389 kts | 65° |
| 2026-05-05 00:21 | 54.76483 | -5.63454 | 16962 ft | 393 kts | 65° |
| 2026-05-05 00:21 | 54.77590 | -5.59091 | 17632 ft | 398 kts | 65° |
| 2026-05-05 00:21 | 54.78691 | -5.54724 | 18308 ft | 402 kts | 65° |
| 2026-05-05 00:21 | 54.79813 | -5.50246 | 18894 ft | 406 kts | 65° |
| 2026-05-05 00:22 | 54.80940 | -5.45719 | 19456 ft | 410 kts | 65° |
| 2026-05-05 00:22 | 54.82077 | -5.41139 | 20022 ft | 414 kts | 65° |
| 2026-05-05 00:22 | 54.83222 | -5.36521 | 20584 ft | 419 kts | 65° |
| 2026-05-05 00:22 | 54.84358 | -5.31931 | 21129 ft | 422 kts | 65° |
| 2026-05-05 00:23 | 54.85503 | -5.27204 | 21673 ft | 427 kts | 69° |
| 2026-05-05 00:23 | 54.86253 | -5.22191 | 22197 ft | 431 kts | 81° |
| 2026-05-05 00:23 | 54.86423 | -5.16964 | 22722 ft | 435 kts | 93° |
| 2026-05-05 00:23 | 54.86011 | -5.11743 | 23025 ft | 437 kts | 104° |
| 2026-05-05 00:24 | 54.85027 | -5.06765 | 23083 ft | 446 kts | 116° |
| 2026-05-05 00:24 | 54.83496 | -5.02060 | 23083 ft | 449 kts | 123° |
| 2026-05-05 00:24 | 54.81854 | -4.97442 | 23078 ft | 450 kts | 123° |
| 2026-05-05 00:24 | 54.80210 | -4.92813 | 23079 ft | 451 kts | 123° |
| 2026-05-05 00:25 | 54.78596 | -4.88259 | 23079 ft | 451 kts | 123° |
| 2026-05-05 00:25 | 54.76948 | -4.83611 | 23079 ft | 451 kts | 123° |
| 2026-05-05 00:25 | 54.75303 | -4.78979 | 23082 ft | 451 kts | 123° |
| 2026-05-05 00:25 | 54.73672 | -4.74398 | 23079 ft | 451 kts | 123° |
| 2026-05-05 00:26 | 54.72015 | -4.69758 | 23079 ft | 451 kts | 123° |
| 2026-05-05 00:26 | 54.70361 | -4.65134 | 23078 ft | 451 kts | 123° |
| 2026-05-05 00:26 | 54.68709 | -4.60515 | 23078 ft | 451 kts | 123° |
| 2026-05-05 00:26 | 54.67056 | -4.55898 | 23076 ft | 451 kts | 123° |
| 2026-05-05 00:27 | 54.65405 | -4.51295 | 23070 ft | 451 kts | 123° |
| 2026-05-05 00:27 | 54.63753 | -4.46701 | 23077 ft | 450 kts | 123° |
| 2026-05-05 00:27 | 54.62096 | -4.42105 | 23081 ft | 450 kts | 123° |
| 2026-05-05 00:27 | 54.60460 | -4.37579 | 23082 ft | 450 kts | 123° |
| 2026-05-05 00:28 | 54.58799 | -4.32995 | 23082 ft | 449 kts | 123° |
| 2026-05-05 00:28 | 54.57143 | -4.28430 | 23077 ft | 449 kts | 123° |
| 2026-05-05 00:28 | 54.55483 | -4.23860 | 23077 ft | 449 kts | 123° |
| 2026-05-05 00:28 | 54.53819 | -4.19286 | 23076 ft | 449 kts | 123° |
| 2026-05-05 00:29 | 54.52154 | -4.14721 | 23082 ft | 449 kts | 123° |
| 2026-05-05 00:29 | 54.50509 | -4.10220 | 23081 ft | 449 kts | 123° |
| 2026-05-05 00:29 | 54.49384 | -4.07149 | 23080 ft | 449 kts | 123° |